createdAt,value
2022-08-01T00:01:32.244Z,1.90
2022-08-01T00:04:00.312Z,1.80
2022-08-01T00:06:28.487Z,2.00
2022-08-01T00:08:56.941Z,2.10
2022-08-01T00:11:25.086Z,1.73
2022-08-01T00:13:53.276Z,1.95
2022-08-01T00:16:23.592Z,1.77
2022-08-01T00:18:53.754Z,1.73
2022-08-01T00:21:22.209Z,1.83
2022-08-01T00:23:50.288Z,1.80
2022-08-01T00:26:18.482Z,2.20
2022-08-01T00:28:46.678Z,2.05
2022-08-01T00:31:15.167Z,2.10
2022-08-01T00:33:43.227Z,2.00
2022-08-01T00:36:13.924Z,2.00
2022-08-01T00:38:42.024Z,1.92
2022-08-01T00:41:10.150Z,2.20
2022-08-01T00:43:38.263Z,2.10
2022-08-01T00:46:06.310Z,1.80
2022-08-01T00:48:34.496Z,1.85
2022-08-01T00:51:02.959Z,1.77
2022-08-01T00:53:50.826Z,1.90
2022-08-01T00:56:20.599Z,1.90
2022-08-01T00:58:48.902Z,2.20
2022-08-01T01:01:18.949Z,2.05
2022-08-01T01:04:02.804Z,1.90
2022-08-01T01:06:46.671Z,2.10
2022-08-01T01:09:31.148Z,2.10
2022-08-01T01:12:11.222Z,2.10
2022-08-01T01:14:57.675Z,2.20
2022-08-01T01:17:40.729Z,2.03
2022-08-01T01:20:22.642Z,1.90
2022-08-01T01:23:08.511Z,1.73
2022-08-01T01:25:55.045Z,2.10
2022-08-01T01:28:31.840Z,2.00
2022-08-01T01:31:03.028Z,2.20
2022-08-01T01:33:33.368Z,1.90
2022-08-01T01:36:04.590Z,2.30
2022-08-01T01:38:43.962Z,2.08
2022-08-01T01:41:15.085Z,2.17
2022-08-01T01:43:43.537Z,1.98
2022-08-01T01:46:14.519Z,2.40
2022-08-01T01:48:45.605Z,2.40
2022-08-01T01:51:15.437Z,2.20
2022-08-01T01:53:45.730Z,2.58
2022-08-01T01:56:16.379Z,2.30
2022-08-01T01:58:45.427Z,2.20
2022-08-01T02:01:16.446Z,2.40
2022-08-01T02:04:05.673Z,1.98
2022-08-01T02:06:34.920Z,2.30
2022-08-01T02:09:03.763Z,2.10
2022-08-01T02:11:33.157Z,2.53
2022-08-01T02:14:04.566Z,2.30
2022-08-01T02:16:37.040Z,2.50
2022-08-01T02:19:06.004Z,2.60
2022-08-01T02:21:40.708Z,2.45
2022-08-01T02:24:15.434Z,2.83
2022-08-01T02:26:49.708Z,2.45
2022-08-01T02:29:23.984Z,2.60
2022-08-01T02:31:56.774Z,2.30
2022-08-01T02:34:29.835Z,2.42
2022-08-01T02:36:59.303Z,2.60
2022-08-01T02:39:30.608Z,2.53
2022-08-01T02:42:02.550Z,2.17
2022-08-01T02:44:34.878Z,2.70
2022-08-01T02:47:05.748Z,2.58
2022-08-01T02:49:35.882Z,2.38
2022-08-01T02:52:09.181Z,2.55
2022-08-01T02:54:39.274Z,2.83
2022-08-01T02:57:08.602Z,2.55
2022-08-01T02:59:41.390Z,2.35
2022-08-01T03:02:12.725Z,2.80
2022-08-01T03:04:42.623Z,2.83
2022-08-01T03:07:12.901Z,3.05
2022-08-01T03:09:44.351Z,2.30
2022-08-01T03:12:16.499Z,2.83
2022-08-01T03:14:46.463Z,2.70
2022-08-01T03:17:18.642Z,2.47
2022-08-01T03:19:48.900Z,2.60
2022-08-01T03:22:20.625Z,2.63
2022-08-01T03:24:53.342Z,2.95
2022-08-01T03:27:23.479Z,2.97
2022-08-01T03:29:52.487Z,2.50
2022-08-01T03:32:22.876Z,2.80
2022-08-01T03:34:51.189Z,2.85
2022-08-01T03:37:26.374Z,3.13
2022-08-01T03:39:59.664Z,2.85
2022-08-01T03:42:34.725Z,3.00
2022-08-01T03:45:06.915Z,2.72
2022-08-01T03:47:43.528Z,2.50
2022-08-01T03:50:15.591Z,2.50
2022-08-01T03:52:48.584Z,2.83
2022-08-01T03:55:18.948Z,3.08
2022-08-01T03:57:48.444Z,2.85
2022-08-01T04:00:19.410Z,2.75
2022-08-01T04:02:49.806Z,2.63
2022-08-01T04:05:18.481Z,2.72
2022-08-01T04:07:48.986Z,2.50
2022-08-01T04:10:17.127Z,2.78
2022-08-01T04:12:45.166Z,2.72
2022-08-01T04:15:13.229Z,2.58
2022-08-01T04:17:41.344Z,2.80
2022-08-01T04:20:13.144Z,2.80
2022-08-01T04:22:41.393Z,2.88
2022-08-01T04:25:16.577Z,2.40
2022-08-01T04:27:51.321Z,2.80
2022-08-01T04:30:25.471Z,2.83
2022-08-01T04:32:56.587Z,2.70
2022-08-01T04:36:02.554Z,2.70
2022-08-01T04:38:24.176Z,2.70
2022-08-01T04:40:54.189Z,2.63
2022-08-01T04:43:22.858Z,2.70
2022-08-01T04:45:52.657Z,2.65
2022-08-01T04:48:22.632Z,2.72
2022-08-01T04:50:52.925Z,2.53
2022-08-01T04:53:22.890Z,2.60
2022-08-01T04:55:51.377Z,3.10
2022-08-01T04:58:19.966Z,2.80
2022-08-01T05:00:48.543Z,2.70
2022-08-01T05:03:19.080Z,2.92
2022-08-01T05:05:47.595Z,3.00
2022-08-01T05:08:17.318Z,3.00
2022-08-01T05:10:45.788Z,3.00
2022-08-01T05:13:14.057Z,2.70
2022-08-01T05:15:42.111Z,2.75
2022-08-01T05:18:10.600Z,2.60
2022-08-01T05:20:39.027Z,2.72
2022-08-01T05:23:10.094Z,2.63
2022-08-01T05:25:57.991Z,2.60
2022-08-01T05:28:26.411Z,2.47
2022-08-01T05:30:56.174Z,2.20
2022-08-01T05:33:24.640Z,2.03
2022-08-01T05:35:52.916Z,2.30
2022-08-01T05:38:21.095Z,2.40
2022-08-01T05:40:50.607Z,2.22
2022-08-01T05:43:18.686Z,2.22
2022-08-01T05:45:47.047Z,2.60
2022-08-01T05:48:15.193Z,2.35
2022-08-01T05:50:43.934Z,2.58
2022-08-01T05:53:12.302Z,2.58
2022-08-01T05:55:40.415Z,2.50
2022-08-01T05:58:12.494Z,2.60
2022-08-01T06:00:40.860Z,2.50
2022-08-01T06:03:08.879Z,2.58
2022-08-01T06:05:36.962Z,2.75
2022-08-01T06:08:05.488Z,2.70
2022-08-01T06:10:33.629Z,2.63
2022-08-01T06:13:03.923Z,2.58
2022-08-01T06:15:33.507Z,2.50
2022-08-01T06:18:01.743Z,2.50
2022-08-01T06:20:29.900Z,2.50
2022-08-01T06:22:58.068Z,2.50
2022-08-01T06:25:28.166Z,2.80
2022-08-01T06:27:56.242Z,2.42
2022-08-01T06:30:24.825Z,2.70
2022-08-01T06:32:56.781Z,2.60
2022-08-01T06:35:24.881Z,2.65
2022-08-01T06:37:53.069Z,2.55
2022-08-01T06:40:21.253Z,2.85
2022-08-01T06:42:49.400Z,2.92
2022-08-01T06:45:18.605Z,2.70
2022-08-01T06:47:50.833Z,2.80
2022-08-01T06:50:20.678Z,3.00
2022-08-01T06:52:48.923Z,2.70
2022-08-01T06:55:17.087Z,2.67
2022-08-01T06:57:50.335Z,2.80
2022-08-01T07:00:23.325Z,2.70
2022-08-01T07:02:51.650Z,2.92
2022-08-01T07:05:21.693Z,2.67
2022-08-01T07:07:49.915Z,2.90
2022-08-01T07:10:18.434Z,3.05
2022-08-01T07:12:46.620Z,2.60
2022-08-01T07:15:14.670Z,2.30
2022-08-01T07:17:44.241Z,2.72
2022-08-01T07:20:16.575Z,2.20
2022-08-01T07:22:48.178Z,2.33
2022-08-01T07:25:17.053Z,2.35
2022-08-01T07:27:45.680Z,2.42
2022-08-01T07:30:14.586Z,2.40
2022-08-01T07:32:42.782Z,2.40
2022-08-01T07:35:11.698Z,2.70
2022-08-01T07:37:47.899Z,2.67
2022-08-01T07:40:20.131Z,2.00
2022-08-01T07:42:48.959Z,2.20
2022-08-01T07:45:17.228Z,2.17
2022-08-01T07:47:45.684Z,2.40
2022-08-01T07:50:14.602Z,2.20
2022-08-01T07:52:42.702Z,2.10
2022-08-01T07:55:16.165Z,2.67
2022-08-01T07:57:46.524Z,2.40
2022-08-01T08:00:15.352Z,2.40
2022-08-01T08:02:43.645Z,1.52
2022-08-01T08:05:13.119Z,1.75
2022-08-01T08:07:41.553Z,2.17
2022-08-01T08:10:10.533Z,1.80
2022-08-01T08:12:38.702Z,1.80
2022-08-01T08:15:09.164Z,1.90
2022-08-01T08:17:37.243Z,1.80
2022-08-01T08:20:08.948Z,1.80
2022-08-01T08:22:38.146Z,1.63
2022-08-01T08:25:07.935Z,1.80
2022-08-01T08:27:37.435Z,1.70
2022-08-01T08:30:09.432Z,1.90
2022-08-01T08:32:38.119Z,1.85
2022-08-01T08:35:07.671Z,2.05
2022-08-01T08:37:37.916Z,2.28
2022-08-01T08:40:10.898Z,2.05
2022-08-01T08:42:42.169Z,2.13
2022-08-01T08:45:12.668Z,1.83
2022-08-01T08:47:43.106Z,2.20
2022-08-01T08:50:11.706Z,2.28
2022-08-01T08:52:42.161Z,2.50
2022-08-01T08:55:12.722Z,2.25
2022-08-01T08:57:45.419Z,2.45
2022-08-01T09:00:17.127Z,2.42
2022-08-01T09:02:47.470Z,2.45
2022-08-01T09:05:19.517Z,2.40
2022-08-01T09:07:48.085Z,2.22
2022-08-01T09:10:16.138Z,2.35
2022-08-01T09:13:11.559Z,2.50
2022-08-01T09:15:51.491Z,2.78
2022-08-01T09:18:31.069Z,2.90
2022-08-01T09:21:18.443Z,2.78
2022-08-01T09:23:54.469Z,2.65
2022-08-01T09:26:30.874Z,2.72
2022-08-01T09:29:00.134Z,2.55
2022-08-01T09:31:38.231Z,2.70
2022-08-01T09:34:09.393Z,2.60
2022-08-01T09:36:56.683Z,2.67
2022-08-01T09:39:27.541Z,2.60
2022-08-01T09:41:56.847Z,2.35
2022-08-01T09:44:42.063Z,2.78
2022-08-01T09:47:15.292Z,2.58
2022-08-01T09:49:49.826Z,2.53
2022-08-01T09:52:21.145Z,2.70
2022-08-01T09:54:56.791Z,2.38
2022-08-01T09:57:25.095Z,2.50
2022-08-01T09:59:59.960Z,2.55
2022-08-01T10:02:34.030Z,2.50
2022-08-01T10:05:08.139Z,2.70
2022-08-01T10:07:43.548Z,2.80
2022-08-01T10:10:14.410Z,2.40
2022-08-01T10:12:45.408Z,2.60
2022-08-01T10:15:18.092Z,2.75
2022-08-01T10:17:57.299Z,2.20
2022-08-01T10:20:31.025Z,2.60
2022-08-01T10:23:05.947Z,2.45
2022-08-01T10:25:42.944Z,2.30
2022-08-01T10:28:18.153Z,2.53
2022-08-01T10:30:50.500Z,2.70
2022-08-01T10:33:50.486Z,2.42
2022-08-01T10:36:08.890Z,2.50
2022-08-01T10:38:38.291Z,2.65
2022-08-01T10:41:08.830Z,2.50
2022-08-01T10:43:37.362Z,2.75
2022-08-01T10:46:06.085Z,2.35
2022-08-01T10:48:45.099Z,2.50
2022-08-01T10:51:18.140Z,2.63
2022-08-01T10:53:54.317Z,2.63
2022-08-01T10:56:29.679Z,2.30
2022-08-01T10:59:11.835Z,2.50
2022-08-01T11:01:45.030Z,2.40
2022-08-01T11:04:17.596Z,2.53
2022-08-01T11:07:05.207Z,2.70
2022-08-01T11:09:41.957Z,2.50
2022-08-01T11:12:16.277Z,2.65
2022-08-01T11:15:29.612Z,2.75
2022-08-01T11:18:04.573Z,3.03
2022-08-01T11:20:39.558Z,2.30
2022-08-01T11:23:29.732Z,2.35
2022-08-01T11:26:29.373Z,2.55
2022-08-01T11:29:25.596Z,2.40
2022-08-01T11:31:54.094Z,2.65
2022-08-01T11:34:42.402Z,2.63
2022-08-01T11:40:24.847Z,4.55
2022-08-01T11:43:19.480Z,5.18
2022-08-01T11:45:51.397Z,4.45
2022-08-01T11:48:23.269Z,4.85
2022-08-01T11:51:05.844Z,4.78
2022-08-01T11:53:34.460Z,4.90
2022-08-01T11:56:06.443Z,5.10
2022-08-01T11:58:35.269Z,4.80
2022-08-01T12:01:03.540Z,4.50
2022-08-01T12:03:34.712Z,4.90
2022-08-01T12:09:32.156Z,4.80
2022-08-01T12:12:07.405Z,4.15
2022-08-01T12:18:10.719Z,4.45
2022-08-01T12:21:56.052Z,4.45
2022-08-01T12:25:19.206Z,4.10
2022-08-01T12:27:52.143Z,3.40
2022-08-01T12:30:25.499Z,3.30
2022-08-01T12:32:55.116Z,3.58
2022-08-01T12:35:34.747Z,3.35
2022-08-01T12:38:05.635Z,3.88
2022-08-01T12:40:39.907Z,3.40
2022-08-01T12:43:55.311Z,3.75
2022-08-01T12:46:27.073Z,3.88
2022-08-01T12:49:02.544Z,4.50
2022-08-01T12:51:30.759Z,3.90
2022-08-01T12:54:00.880Z,3.95
2022-08-01T12:56:35.153Z,3.58
2022-08-01T12:59:03.283Z,3.60
2022-08-01T13:01:33.294Z,4.05
2022-08-01T13:04:02.683Z,4.10
2022-08-01T13:06:31.608Z,3.60
2022-08-01T13:09:07.784Z,3.83
2022-08-01T13:11:35.858Z,4.13
2022-08-01T13:14:04.327Z,4.05
2022-08-01T13:16:55.402Z,3.85
2022-08-01T13:19:22.179Z,3.72
2022-08-01T13:21:57.788Z,3.88
2022-08-01T13:24:30.510Z,3.78
2022-08-01T13:27:01.731Z,3.63
2022-08-01T13:29:34.554Z,3.80
2022-08-01T13:32:32.304Z,3.58
2022-08-01T13:35:04.993Z,3.10
2022-08-01T13:37:33.136Z,3.00
2022-08-01T13:40:01.237Z,3.05
2022-08-01T13:42:30.427Z,2.88
2022-08-01T13:44:58.618Z,3.15
2022-08-01T13:47:32.142Z,2.83
2022-08-01T13:50:03.211Z,2.83
2022-08-01T13:52:31.832Z,2.70
2022-08-01T13:55:00.150Z,3.05
2022-08-01T13:57:36.647Z,2.97
2022-08-01T14:00:08.262Z,2.60
2022-08-01T14:02:37.798Z,3.00
2022-08-01T14:05:06.762Z,2.90
2022-08-01T14:07:34.865Z,2.63
2022-08-01T14:10:18.387Z,2.70
2022-08-01T14:12:48.483Z,2.78
2022-08-01T14:15:18.640Z,2.70
2022-08-01T14:18:06.626Z,2.70
2022-08-01T14:20:35.375Z,2.50
2022-08-01T14:23:03.723Z,2.53
2022-08-01T14:26:03.388Z,2.30
2022-08-01T14:28:24.663Z,2.70
2022-08-01T14:30:52.769Z,2.72
2022-08-01T14:33:22.247Z,2.80
2022-08-01T14:36:06.777Z,2.70
2022-08-01T14:38:38.443Z,2.50
2022-08-01T14:41:06.563Z,2.38
2022-08-01T14:43:34.621Z,2.60
2022-08-01T14:46:04.526Z,2.58
2022-08-01T14:48:34.245Z,2.50
2022-08-01T14:51:03.954Z,2.78
2022-08-01T14:53:35.746Z,2.45
2022-08-01T14:56:04.758Z,2.72
2022-08-01T14:58:32.867Z,2.33
2022-08-01T15:01:01.628Z,2.80
2022-08-01T15:03:29.882Z,2.35
2022-08-01T15:05:59.328Z,2.50
2022-08-01T15:08:27.477Z,2.80
2022-08-01T15:10:55.586Z,2.40
2022-08-01T15:13:23.613Z,2.63
2022-08-01T15:15:51.631Z,2.50
2022-08-01T15:18:19.657Z,2.50
2022-08-01T15:20:47.796Z,2.70
2022-08-01T15:23:17.250Z,2.67
2022-08-01T15:25:46.106Z,2.33
2022-08-01T15:28:14.356Z,2.97
2022-08-01T15:30:46.188Z,7.97
2022-08-01T15:37:00.109Z,6.45
2022-08-01T15:39:34.195Z,5.90
2022-08-01T15:42:05.813Z,7.53
2022-08-01T15:44:35.435Z,6.28
2022-08-01T15:47:04.752Z,6.28
2022-08-01T15:49:33.227Z,5.22
2022-08-01T15:52:01.774Z,5.68
2022-08-01T15:54:30.200Z,4.72
2022-08-01T15:57:29.621Z,4.93
2022-08-01T16:00:00.564Z,4.28
2022-08-01T16:02:28.729Z,3.97
2022-08-01T16:04:57.078Z,3.72
2022-08-01T16:07:31.297Z,3.70
2022-08-01T16:09:59.440Z,4.03
2022-08-01T16:12:33.946Z,3.55
2022-08-01T16:15:02.053Z,3.40
2022-08-01T16:17:41.806Z,8.80
2022-08-01T16:20:16.225Z,5.20
2022-08-01T16:22:44.645Z,4.20
2022-08-01T16:25:14.913Z,3.67
2022-08-01T16:27:45.832Z,4.22
2022-08-01T16:30:17.120Z,3.92
2022-08-01T16:33:06.445Z,3.70
2022-08-01T16:35:53.403Z,3.13
2022-08-01T16:38:31.129Z,3.17
2022-08-01T16:41:04.318Z,2.90
2022-08-01T16:43:53.134Z,2.85
2022-08-01T16:46:23.575Z,2.70
2022-08-01T16:52:23.227Z,2.85
2022-08-01T16:55:49.588Z,3.00
2022-08-01T17:02:41.492Z,3.40
2022-08-01T18:09:21.687Z,2.90
2022-08-01T18:12:14.994Z,3.30
2022-08-01T18:15:27.060Z,3.33
2022-08-01T18:18:05.417Z,3.53
2022-08-01T18:20:36.834Z,3.33
2022-08-01T18:23:13.402Z,3.53
2022-08-01T18:25:44.272Z,3.40
2022-08-01T18:28:30.042Z,3.60
2022-08-01T18:31:06.706Z,3.20
2022-08-01T18:33:55.537Z,3.28
2022-08-01T18:36:32.890Z,3.50
2022-08-01T18:39:05.597Z,3.03
2022-08-01T18:41:36.808Z,3.40
2022-08-01T18:44:08.085Z,3.50
2022-08-01T18:46:38.221Z,3.60
2022-08-01T18:49:08.434Z,4.38
2022-08-01T18:51:42.924Z,5.07
2022-08-01T18:54:12.149Z,3.80
2022-08-01T18:56:43.398Z,4.20
2022-08-01T18:59:11.855Z,4.60
2022-08-01T19:01:40.486Z,4.18
2022-08-01T19:04:09.480Z,4.90
2022-08-01T19:06:37.865Z,4.18
2022-08-01T19:09:06.793Z,4.55
2022-08-01T19:11:35.710Z,4.55
2022-08-01T19:14:05.407Z,4.85
2022-08-01T19:16:36.210Z,6.85
2022-08-01T19:19:07.044Z,7.82
2022-08-01T19:21:35.405Z,6.32
2022-08-01T19:24:23.167Z,5.25
2022-08-01T19:26:53.873Z,4.60
2022-08-01T19:29:35.183Z,5.10
2022-08-01T19:32:05.531Z,4.88
2022-08-01T19:34:37.551Z,4.95
2022-08-01T19:37:06.313Z,5.68
2022-08-01T19:39:34.676Z,5.82
2022-08-01T19:42:04.164Z,5.05
2022-08-01T19:44:34.717Z,4.80
2022-08-01T19:47:03.365Z,4.30
2022-08-01T19:49:31.562Z,4.50
2022-08-01T19:52:05.669Z,3.60
2022-08-01T19:54:36.242Z,3.45
2022-08-01T19:57:13.465Z,3.15
2022-08-01T19:59:46.283Z,3.50
2022-08-01T20:02:18.092Z,3.90
2022-08-01T20:04:46.543Z,4.32
2022-08-01T20:07:15.527Z,4.53
2022-08-01T20:09:48.073Z,5.60
2022-08-01T20:12:16.796Z,6.13
2022-08-01T20:14:49.871Z,6.65
2022-08-01T20:17:18.224Z,5.82
2022-08-01T20:19:46.288Z,5.78
2022-08-01T20:22:15.556Z,5.60
2022-08-01T20:24:46.090Z,5.18
2022-08-01T20:27:15.661Z,4.60
2022-08-01T20:29:48.343Z,4.32
2022-08-01T20:36:05.019Z,4.57
2022-08-01T20:38:41.768Z,4.70
2022-08-01T20:41:10.247Z,5.15
2022-08-01T20:43:38.628Z,5.00
2022-08-01T20:46:08.862Z,5.07
2022-08-01T20:48:37.780Z,4.32
2022-08-01T20:51:18.181Z,5.07
2022-08-01T20:53:53.082Z,4.55
2022-08-01T20:56:36.303Z,3.80
2022-08-01T20:59:54.565Z,3.58
2022-08-01T21:02:17.515Z,3.40
2022-08-01T21:04:56.306Z,5.65
2022-08-01T21:07:28.082Z,6.90
2022-08-01T21:10:07.852Z,4.20
2022-08-01T21:12:44.895Z,3.65
2022-08-01T21:15:16.771Z,3.20
2022-08-01T21:17:53.921Z,3.15
2022-08-01T21:20:23.626Z,4.60
2022-08-01T21:23:00.562Z,4.80
2022-08-01T21:25:33.608Z,4.30
2022-08-01T21:28:02.555Z,3.90
2022-08-01T21:30:32.375Z,3.72
2022-08-01T21:33:05.319Z,4.90
2022-08-01T21:35:34.062Z,5.13
2022-08-01T21:38:04.514Z,5.00
2022-08-01T21:40:34.118Z,4.57
2022-08-01T21:43:04.048Z,5.18
2022-08-01T21:45:32.448Z,4.22
2022-08-01T21:48:02.476Z,4.65
2022-08-01T21:50:34.118Z,3.70
2022-08-01T21:53:13.675Z,3.25
2022-08-01T21:55:53.817Z,3.88
2022-08-01T21:58:41.870Z,3.55
2022-08-01T22:01:14.808Z,3.42
2022-08-01T22:03:47.329Z,3.15
2022-08-01T22:06:16.411Z,3.28
2022-08-01T22:08:50.666Z,2.95
2022-08-01T22:11:22.996Z,2.63
2022-08-01T22:13:55.086Z,3.17
2022-08-01T22:16:23.451Z,3.17
2022-08-01T22:18:53.566Z,3.75
2022-08-01T22:21:22.172Z,3.25
2022-08-01T22:23:52.841Z,3.92
2022-08-01T22:26:27.150Z,3.75
2022-08-01T22:28:57.796Z,3.33
2022-08-01T22:31:26.003Z,3.60
2022-08-01T22:33:55.954Z,3.65
2022-08-01T22:36:24.422Z,3.65
2022-08-01T22:38:52.449Z,3.55
2022-08-01T22:41:24.931Z,3.47
2022-08-01T22:44:00.584Z,3.35
2022-08-01T22:46:36.121Z,3.50
2022-08-01T22:49:16.222Z,3.38
2022-08-01T22:51:54.941Z,3.45
2022-08-01T22:54:29.924Z,3.50
2022-08-01T22:57:02.354Z,3.33
2022-08-01T22:59:47.466Z,3.92
2022-08-01T23:02:17.793Z,4.88
2022-08-01T23:04:49.575Z,5.25
2022-08-01T23:07:22.255Z,5.30
2022-08-01T23:09:55.265Z,5.10
2022-08-01T23:12:27.823Z,5.13
2022-08-01T23:14:57.545Z,4.47
2022-08-01T23:17:28.920Z,4.22
2022-08-01T23:20:00.854Z,4.65
2022-08-01T23:22:32.224Z,4.22
2022-08-01T23:25:05.344Z,3.85
2022-08-01T23:27:54.176Z,3.70
2022-08-01T23:30:26.396Z,3.63
2022-08-01T23:32:54.601Z,3.50
2022-08-01T23:35:24.441Z,3.63
2022-08-01T23:37:52.838Z,3.90
2022-08-01T23:40:24.787Z,3.30
2022-08-01T23:42:54.698Z,3.58
2022-08-01T23:45:23.483Z,3.85
2022-08-01T23:47:52.045Z,3.30
2022-08-01T23:50:22.159Z,4.00
2022-08-01T23:52:52.964Z,4.47
2022-08-01T23:55:30.650Z,4.00
2022-08-01T23:58:06.703Z,4.03
